createdAt,value
2022-08-24T00:02:35.281Z,99658.56
2022-08-24T00:05:21.508Z,99690.00
2022-08-24T00:08:05.595Z,99650.66
2022-08-24T00:10:49.607Z,99655.47
2022-08-24T00:13:37.273Z,99674.09
2022-08-24T00:16:23.680Z,99637.41
2022-08-24T00:19:07.999Z,99656.47
2022-08-24T00:21:52.285Z,99654.94
2022-08-24T00:24:36.520Z,99678.59
2022-08-24T00:27:20.570Z,99644.25
2022-08-24T00:30:08.731Z,99674.63
2022-08-24T00:32:54.323Z,99684.00
2022-08-24T00:35:38.402Z,99663.59
2022-08-24T00:38:22.664Z,99597.41
2022-08-24T00:41:11.854Z,99595.19
2022-08-24T00:43:58.478Z,99629.66
2022-08-24T00:46:51.528Z,99627.28
2022-08-24T00:49:40.601Z,99617.16
2022-08-24T00:52:29.680Z,99664.59
2022-08-24T00:55:19.152Z,99648.81
2022-08-24T00:58:07.881Z,99654.59
2022-08-24T01:00:58.147Z,99660.84
2022-08-24T01:03:46.400Z,99634.66
2022-08-24T01:06:32.109Z,99575.41
2022-08-24T01:09:16.256Z,99622.97
2022-08-24T01:12:01.717Z,99629.56
2022-08-24T01:14:46.041Z,99628.91
2022-08-24T01:17:47.638Z,99616.22
2022-08-24T01:20:33.513Z,99607.97
2022-08-24T01:23:36.624Z,99591.28
2022-08-24T01:26:23.689Z,99652.41
2022-08-24T01:29:11.072Z,99633.00
2022-08-24T01:31:55.552Z,99671.53
2022-08-24T01:34:39.670Z,99640.31
2022-08-24T01:37:23.993Z,99689.50
2022-08-24T01:40:10.628Z,99667.31
2022-08-24T01:42:55.437Z,99662.78
2022-08-24T01:45:39.807Z,99693.94
2022-08-24T01:48:24.621Z,99710.91
2022-08-24T01:51:10.613Z,99716.97
2022-08-24T01:53:54.673Z,99697.09
2022-08-24T01:56:40.451Z,99672.97
2022-08-24T01:59:25.620Z,99663.81
2022-08-24T02:02:13.360Z,99687.09
2022-08-24T02:04:57.589Z,99641.59
2022-08-24T02:07:41.794Z,99682.34
2022-08-24T02:10:26.490Z,99623.63
2022-08-24T02:13:11.980Z,99632.59
2022-08-24T02:15:56.262Z,99608.66
2022-08-24T02:18:41.454Z,99602.69
2022-08-24T02:21:26.392Z,99597.38
2022-08-24T02:24:10.864Z,99604.66
2022-08-24T02:26:55.976Z,99642.56
2022-08-24T02:29:42.569Z,99578.38
2022-08-24T02:32:26.623Z,99588.47
2022-08-24T02:35:11.360Z,99604.91
2022-08-24T02:37:55.472Z,99587.16
2022-08-24T02:40:39.680Z,99565.19
2022-08-24T02:43:24.492Z,99583.88
2022-08-24T02:46:13.899Z,99606.34
2022-08-24T02:49:10.399Z,99566.69
2022-08-24T02:51:57.982Z,99601.41
2022-08-24T02:54:42.172Z,99582.19
2022-08-24T02:57:26.335Z,99597.50
2022-08-24T03:00:13.494Z,99599.88
2022-08-24T03:03:10.364Z,99593.00
2022-08-24T03:05:54.488Z,99585.38
2022-08-24T03:08:42.554Z,99579.91
2022-08-24T03:11:32.868Z,99582.06
2022-08-24T03:14:17.433Z,99595.38
2022-08-24T03:17:01.565Z,99556.53
2022-08-24T03:19:47.599Z,99567.88
2022-08-24T03:22:31.755Z,99572.91
2022-08-24T03:25:18.422Z,99537.81
2022-08-24T03:28:02.824Z,99574.91
2022-08-24T03:30:52.834Z,99573.09
2022-08-24T03:33:37.119Z,99538.78
2022-08-24T03:36:23.091Z,99530.94
2022-08-24T03:39:07.485Z,99520.91
2022-08-24T03:41:51.641Z,99512.44
2022-08-24T03:44:35.815Z,99535.63
2022-08-24T03:47:20.342Z,99491.13
2022-08-24T03:50:05.225Z,99518.31
2022-08-24T03:52:51.326Z,99522.75
2022-08-24T03:55:35.335Z,99487.22
2022-08-24T03:58:19.553Z,99498.84
2022-08-24T04:01:03.980Z,99451.16
2022-08-24T04:03:50.036Z,99498.78
2022-08-24T04:06:34.072Z,99483.81
2022-08-24T04:09:20.177Z,99519.59
2022-08-24T04:12:05.695Z,99499.63
2022-08-24T04:14:52.765Z,99517.91
2022-08-24T04:17:36.886Z,99559.50
2022-08-24T04:20:23.130Z,99548.59
2022-08-24T04:23:09.693Z,99547.44
2022-08-24T04:26:04.280Z,99587.69
2022-08-24T04:28:49.000Z,99592.56
2022-08-24T04:31:33.957Z,99584.34
2022-08-24T04:34:19.058Z,99583.97
2022-08-24T04:37:03.311Z,99627.72
2022-08-24T04:39:47.588Z,99596.09
2022-08-24T04:42:33.607Z,99616.50
2022-08-24T04:45:18.750Z,99565.50
2022-08-24T04:48:02.933Z,99583.19
2022-08-24T04:50:47.562Z,99628.69
2022-08-24T04:53:31.896Z,99607.97
2022-08-24T04:56:17.961Z,99600.00
2022-08-24T04:59:06.270Z,99627.00
2022-08-24T05:01:52.474Z,99593.72
2022-08-24T05:04:37.666Z,99631.00
2022-08-24T05:07:21.857Z,99602.00
2022-08-24T05:10:11.055Z,99573.41
2022-08-24T05:12:55.247Z,99625.03
2022-08-24T05:15:45.782Z,99607.09
2022-08-24T05:18:31.996Z,99638.41
2022-08-24T05:21:18.564Z,99642.59
2022-08-24T05:24:04.104Z,99646.78
2022-08-24T05:26:49.914Z,99637.47
2022-08-24T05:29:34.987Z,99621.28
2022-08-24T05:32:21.114Z,99611.28
2022-08-24T05:35:07.866Z,99607.38
2022-08-24T05:37:52.313Z,99598.00
2022-08-24T05:40:39.009Z,99575.09
2022-08-24T05:43:24.617Z,99563.56
2022-08-24T05:46:08.807Z,99605.75
2022-08-24T05:48:55.083Z,99572.19
2022-08-24T05:51:49.927Z,99585.97
2022-08-24T05:54:34.036Z,99592.94
2022-08-24T05:57:21.026Z,99593.63
2022-08-24T06:00:16.939Z,99652.53
2022-08-24T06:03:03.915Z,99666.28
2022-08-24T06:05:53.233Z,99668.47
2022-08-24T06:08:41.253Z,99651.31
2022-08-24T06:11:30.725Z,99658.09
2022-08-24T06:14:19.686Z,99693.47
2022-08-24T06:17:11.470Z,99681.81
2022-08-24T06:19:57.165Z,99713.69
2022-08-24T06:22:44.597Z,99684.91
2022-08-24T06:25:46.754Z,99687.75
2022-08-24T06:28:32.405Z,99702.50
2022-08-24T06:31:17.312Z,99700.91
2022-08-24T06:34:01.457Z,99731.81
2022-08-24T06:36:46.566Z,99703.06
2022-08-24T06:39:32.724Z,99708.75
2022-08-24T06:42:18.809Z,99742.53
2022-08-24T06:45:03.208Z,99728.28
2022-08-24T06:47:48.327Z,99724.09
2022-08-24T06:50:34.241Z,99721.75
2022-08-24T06:53:18.995Z,99723.06
2022-08-24T06:56:06.570Z,99710.03
2022-08-24T06:58:51.803Z,99743.88
2022-08-24T07:01:36.959Z,99740.47
2022-08-24T07:04:24.071Z,99732.84
2022-08-24T07:07:18.681Z,99724.03
2022-08-24T07:10:03.381Z,99696.25
2022-08-24T07:12:49.918Z,99687.69
2022-08-24T07:15:34.484Z,99685.38
2022-08-24T07:18:30.320Z,99721.09
2022-08-24T07:21:19.722Z,99710.75
2022-08-24T07:24:07.213Z,99685.81
2022-08-24T07:26:54.290Z,99722.69
2022-08-24T07:29:56.491Z,99731.13
2022-08-24T07:32:44.700Z,99748.09
2022-08-24T07:35:31.245Z,99742.47
2022-08-24T07:38:15.438Z,99721.75
2022-08-24T07:41:33.218Z,99749.53
2022-08-24T07:44:05.665Z,99734.25
2022-08-24T07:46:52.659Z,99762.75
2022-08-24T07:49:39.706Z,99750.97
2022-08-24T07:52:24.215Z,99775.34
2022-08-24T07:55:09.040Z,99771.88
2022-08-24T07:57:53.276Z,99714.75
2022-08-24T08:00:37.793Z,99769.34
2022-08-24T08:03:26.610Z,99768.06
2022-08-24T08:06:15.983Z,99764.09
2022-08-24T08:09:00.936Z,99733.00
2022-08-24T08:11:47.004Z,99710.75
2022-08-24T08:14:31.064Z,99721.41
2022-08-24T08:17:15.217Z,99717.97
2022-08-24T08:20:01.649Z,99717.69
2022-08-24T08:23:04.466Z,99737.03
2022-08-24T08:25:52.533Z,99723.06
2022-08-24T08:28:43.838Z,99703.94
2022-08-24T08:31:27.936Z,99706.28
2022-08-24T08:34:13.250Z,99744.16
2022-08-24T08:36:59.462Z,99722.06
2022-08-24T08:39:44.276Z,99694.38
2022-08-24T08:42:49.294Z,99767.44
2022-08-24T08:45:49.074Z,99710.38
2022-08-24T08:49:16.736Z,99723.56
2022-08-24T08:52:34.464Z,99752.66
2022-08-24T08:55:30.153Z,99753.34
2022-08-24T08:58:36.854Z,99760.63
2022-08-24T09:01:33.283Z,99742.72
2022-08-24T09:04:49.000Z,99785.75
2022-08-24T09:07:46.217Z,99776.50
2022-08-24T09:10:55.919Z,99748.34
2022-08-24T09:14:11.640Z,99745.06
2022-08-24T09:17:18.616Z,99767.47
2022-08-24T09:20:20.373Z,99761.25
2022-08-24T09:23:18.353Z,99721.50
2022-08-24T09:26:06.379Z,99756.19
2022-08-24T09:29:00.894Z,99752.38
2022-08-24T09:32:04.813Z,99731.72
2022-08-24T09:34:57.300Z,99743.19
2022-08-24T09:38:01.048Z,99754.50
2022-08-24T09:41:10.569Z,99717.13
2022-08-24T09:44:21.779Z,99748.31
2022-08-24T09:47:28.798Z,99721.09
2022-08-24T09:50:54.758Z,99750.00
2022-08-24T09:54:27.341Z,99744.63
2022-08-24T09:57:50.196Z,99697.31
2022-08-24T10:00:42.890Z,99724.91
2022-08-24T10:03:42.289Z,99712.16
2022-08-24T10:06:35.502Z,99725.25
2022-08-24T10:09:50.447Z,99714.00
2022-08-24T10:12:52.897Z,99693.97
2022-08-24T10:15:48.367Z,99651.81
2022-08-24T10:18:46.873Z,99676.25
2022-08-24T10:21:45.798Z,99661.88
2022-08-24T10:24:53.855Z,99682.03
2022-08-24T10:27:54.312Z,99686.94
2022-08-24T10:31:03.014Z,99675.44
2022-08-24T10:34:00.005Z,99659.91
2022-08-24T10:37:07.497Z,99649.34
2022-08-24T10:40:25.552Z,99666.44
2022-08-24T10:43:44.381Z,99633.00
2022-08-24T10:46:47.005Z,99682.88
2022-08-24T10:50:09.354Z,99683.28
2022-08-24T10:53:15.160Z,99686.03
2022-08-24T10:56:08.108Z,99676.84
2022-08-24T10:59:03.933Z,99699.56
2022-08-24T11:02:12.811Z,99701.78
2022-08-24T11:04:59.068Z,99741.00
2022-08-24T11:08:05.279Z,99717.59
2022-08-24T11:11:08.104Z,99742.56
2022-08-24T11:14:00.579Z,99728.00
2022-08-24T11:16:47.121Z,99758.00
2022-08-24T11:19:33.701Z,99695.84
2022-08-24T11:22:36.970Z,99711.94
2022-08-24T11:25:27.605Z,99748.09
2022-08-24T11:28:22.082Z,99716.59
2022-08-24T11:31:12.763Z,99682.06
2022-08-24T11:34:03.731Z,99725.31
2022-08-24T11:36:48.025Z,99697.66
2022-08-24T11:39:35.458Z,99723.06
2022-08-24T11:42:31.528Z,99693.25
2022-08-24T11:45:22.629Z,99720.81
2022-08-24T11:48:25.704Z,99689.31
2022-08-24T11:51:21.955Z,99681.38
2022-08-24T11:54:19.498Z,99686.28
2022-08-24T11:57:12.673Z,99703.00
2022-08-24T12:00:03.652Z,99672.50
2022-08-24T12:03:03.329Z,99664.56
2022-08-24T12:05:54.486Z,99667.19
2022-08-24T12:08:46.049Z,99684.72
2022-08-24T12:11:37.765Z,99673.78
2022-08-24T12:14:30.611Z,99656.50
2022-08-24T12:17:20.550Z,99652.66
2022-08-24T12:20:10.945Z,99651.84
2022-08-24T12:23:03.542Z,99658.31
2022-08-24T12:26:04.900Z,99676.91
2022-08-24T12:28:54.435Z,99658.91
2022-08-24T12:31:43.885Z,99663.81
2022-08-24T12:34:38.627Z,99647.34
2022-08-24T12:37:29.759Z,99666.81
2022-08-24T12:40:25.181Z,99648.22
2022-08-24T12:43:12.804Z,99663.97
2022-08-24T12:46:00.050Z,99667.84
2022-08-24T12:48:51.014Z,99656.78
2022-08-24T12:52:00.169Z,99656.22
2022-08-24T12:55:02.321Z,99662.59
2022-08-24T12:57:55.286Z,99639.00
2022-08-24T13:00:45.663Z,99656.63
2022-08-24T13:03:35.982Z,99645.00
2022-08-24T13:06:21.967Z,99626.28
2022-08-24T13:09:10.463Z,99624.06
2022-08-24T13:11:56.166Z,99650.50
2022-08-24T13:14:50.982Z,99659.53
2022-08-24T13:17:42.466Z,99657.72
2022-08-24T13:20:30.157Z,99659.78
2022-08-24T13:23:19.061Z,99651.81
2022-08-24T13:26:23.886Z,99642.00
2022-08-24T13:29:09.405Z,99618.66
2022-08-24T13:31:57.833Z,99609.66
2022-08-24T13:34:46.038Z,99634.56
2022-08-24T13:37:30.575Z,99625.41
2022-08-24T13:40:27.899Z,99605.13
2022-08-24T13:43:17.637Z,99602.00
2022-08-24T13:46:13.999Z,99618.03
2022-08-24T13:49:03.699Z,99561.19
2022-08-24T13:51:55.474Z,99598.84
2022-08-24T13:54:48.828Z,99613.03
2022-08-24T13:57:43.100Z,99591.25
2022-08-24T14:00:40.080Z,99614.56
2022-08-24T14:03:52.436Z,99615.06
2022-08-24T14:06:49.155Z,99608.72
2022-08-24T14:09:42.376Z,99613.28
2022-08-24T14:12:45.636Z,99580.28
2022-08-24T14:15:47.692Z,99608.75
2022-08-24T14:18:43.900Z,99583.41
2022-08-24T14:21:41.500Z,99576.81
2022-08-24T14:24:32.617Z,99600.06
2022-08-24T14:27:42.130Z,99597.25
2022-08-24T14:30:43.014Z,99570.66
2022-08-24T14:33:33.257Z,99577.31
2022-08-24T14:36:21.743Z,99595.50
2022-08-24T14:39:20.110Z,99566.31
2022-08-24T14:42:17.108Z,99591.88
2022-08-24T14:45:06.929Z,99546.22
2022-08-24T14:48:02.781Z,99567.06
2022-08-24T14:50:56.260Z,99567.63
2022-08-24T14:54:00.985Z,99572.75
2022-08-24T14:57:01.128Z,99539.94
2022-08-24T14:59:56.825Z,99536.44
2022-08-24T15:03:11.627Z,99556.53
2022-08-24T15:06:26.385Z,99552.72
2022-08-24T15:09:18.501Z,99541.41
2022-08-24T15:12:15.595Z,99540.56
2022-08-24T15:15:06.471Z,99530.53
2022-08-24T15:18:00.141Z,99539.03
2022-08-24T15:21:00.064Z,99546.94
2022-08-24T15:23:57.973Z,99534.56
2022-08-24T15:26:56.021Z,99509.63
2022-08-24T15:29:53.788Z,99534.88
2022-08-24T15:32:45.153Z,99529.13
2022-08-24T15:35:32.779Z,99551.81
2022-08-24T15:38:23.708Z,99552.78
2022-08-24T15:41:13.368Z,99533.22
2022-08-24T15:44:01.276Z,99542.78
2022-08-24T15:46:51.152Z,99577.69
2022-08-24T15:49:39.675Z,99587.72
2022-08-24T15:52:44.764Z,99592.97
2022-08-24T15:55:34.023Z,99567.56
2022-08-24T15:58:33.288Z,99573.72
2022-08-24T16:01:41.056Z,99582.44
2022-08-24T16:04:48.086Z,99580.84
2022-08-24T16:07:36.037Z,99549.16
2022-08-24T16:10:31.620Z,99585.41
2022-08-24T16:13:25.397Z,99586.28
2022-08-24T16:16:15.391Z,99584.00
2022-08-24T16:19:02.096Z,99563.66
2022-08-24T16:22:00.053Z,99588.56
2022-08-24T16:24:45.259Z,99617.72
2022-08-24T16:28:00.617Z,99621.91
2022-08-24T16:30:51.569Z,99622.78
2022-08-24T16:33:44.414Z,99598.38
2022-08-24T16:36:29.435Z,99599.78
2022-08-24T16:39:15.001Z,99629.50
2022-08-24T16:42:03.677Z,99628.63
2022-08-24T16:44:47.929Z,99599.50
2022-08-24T16:47:32.100Z,99634.13
2022-08-24T16:50:19.824Z,99627.59
2022-08-24T16:53:04.518Z,99625.75
2022-08-24T16:55:50.310Z,99598.94
2022-08-24T16:58:37.234Z,99618.13
2022-08-24T17:01:21.712Z,99593.56
2022-08-24T17:04:06.251Z,99599.91
2022-08-24T17:06:50.831Z,99621.22
2022-08-24T17:09:38.025Z,99591.13
2022-08-24T17:12:24.100Z,99635.00
2022-08-24T17:15:11.777Z,99604.91
2022-08-24T17:18:01.581Z,99609.72
2022-08-24T17:20:45.670Z,99618.31
2022-08-24T17:23:29.689Z,99608.28
2022-08-24T17:26:20.398Z,99600.34
2022-08-24T17:29:10.602Z,99649.63
2022-08-24T17:31:59.160Z,99670.97
2022-08-24T17:34:43.398Z,99631.69
2022-08-24T17:37:27.411Z,99614.56
2022-08-24T17:40:15.057Z,99653.41
2022-08-24T17:42:59.650Z,99654.66
2022-08-24T17:45:45.496Z,99671.41
2022-08-24T17:48:34.054Z,99693.94
2022-08-24T17:51:18.445Z,99624.75
2022-08-24T17:54:02.431Z,99696.59
2022-08-24T17:56:48.895Z,99668.75
2022-08-24T17:59:35.119Z,99699.19
2022-08-24T18:02:20.866Z,99698.03
2022-08-24T18:05:05.772Z,99648.03
2022-08-24T18:07:54.301Z,99715.19
2022-08-24T18:10:38.730Z,99722.19
2022-08-24T18:13:22.839Z,99703.75
2022-08-24T18:16:08.185Z,99716.09
2022-08-24T18:18:54.205Z,99708.63
2022-08-24T18:21:38.145Z,99666.34
2022-08-24T18:24:22.324Z,99682.06
2022-08-24T18:27:10.301Z,99713.25
2022-08-24T18:29:57.333Z,99726.22
2022-08-24T18:32:41.637Z,99690.28
2022-08-24T18:35:27.147Z,99692.88
2022-08-24T18:38:11.533Z,99680.69
2022-08-24T18:40:55.710Z,99731.41
2022-08-24T18:43:40.651Z,99695.22
2022-08-24T18:46:25.236Z,99706.72
2022-08-24T18:49:09.465Z,99728.94
2022-08-24T18:51:55.416Z,99720.81
2022-08-24T18:54:44.843Z,99715.47
2022-08-24T18:57:29.012Z,99690.50
2022-08-24T19:00:14.490Z,99686.47
2022-08-24T19:03:03.133Z,99706.84
2022-08-24T19:05:47.819Z,99715.78
2022-08-24T19:08:33.382Z,99708.41
2022-08-24T19:11:20.660Z,99694.22
2022-08-24T19:14:04.805Z,99729.03
2022-08-24T19:16:48.946Z,99692.88
2022-08-24T19:19:36.928Z,99714.13
2022-08-24T19:22:22.042Z,99652.75
2022-08-24T19:25:08.944Z,99718.72
2022-08-24T19:27:55.354Z,99700.47
2022-08-24T19:30:40.259Z,99729.06
2022-08-24T19:33:33.269Z,99702.47
2022-08-24T19:36:17.379Z,99725.78
2022-08-24T19:39:01.534Z,99743.00
2022-08-24T19:41:49.532Z,99728.69
2022-08-24T19:44:51.873Z,99725.09
2022-08-24T19:47:36.374Z,99708.59
2022-08-24T19:50:21.197Z,99748.00
2022-08-24T19:53:06.190Z,99779.16
2022-08-24T19:55:50.573Z,99775.22
2022-08-24T19:58:44.571Z,99778.38
2022-08-24T20:01:31.508Z,99759.50
2022-08-24T20:04:15.695Z,99792.28
2022-08-24T20:06:59.822Z,99775.50
2022-08-24T20:09:43.835Z,99773.22
2022-08-24T20:12:28.192Z,99776.69
2022-08-24T20:15:14.504Z,99804.41
2022-08-24T20:17:59.485Z,99770.75
2022-08-24T20:20:44.331Z,99800.41
2022-08-24T20:23:31.046Z,99765.75
2022-08-24T20:26:15.481Z,99784.25
2022-08-24T20:28:59.997Z,99752.34
2022-08-24T20:31:46.962Z,99762.25
2022-08-24T20:34:35.093Z,99769.47
2022-08-24T20:37:23.459Z,99772.47
2022-08-24T20:40:08.786Z,99795.47
2022-08-24T20:42:54.381Z,99759.53
2022-08-24T20:45:38.551Z,99781.69
2022-08-24T20:48:28.708Z,99760.16
2022-08-24T20:51:12.827Z,99731.69
2022-08-24T20:53:57.084Z,99747.03
2022-08-24T20:56:41.346Z,99767.19
2022-08-24T20:59:25.976Z,99728.38
2022-08-24T21:02:10.125Z,99722.81
2022-08-24T21:04:56.317Z,99690.03
2022-08-24T21:07:46.122Z,99696.69
2022-08-24T21:10:30.173Z,99690.28
2022-08-24T21:13:14.500Z,99697.16
2022-08-24T21:15:58.632Z,99679.31
2022-08-24T21:18:43.198Z,99675.94
2022-08-24T21:21:28.929Z,99690.78
2022-08-24T21:24:12.992Z,99683.47
2022-08-24T21:26:57.233Z,99650.03
2022-08-24T21:29:41.379Z,99644.38
2022-08-24T21:32:45.202Z,99639.81
2022-08-24T21:35:29.508Z,99666.88
2022-08-24T21:38:15.407Z,99659.16
2022-08-24T21:41:00.681Z,99649.25
2022-08-24T21:43:44.936Z,99642.00
2022-08-24T21:46:32.688Z,99612.09
2022-08-24T21:49:16.694Z,99617.16
2022-08-24T21:52:00.689Z,99620.41
2022-08-24T21:54:46.389Z,99649.56
2022-08-24T21:57:30.591Z,99611.16
2022-08-24T22:00:19.335Z,99643.25
2022-08-24T22:03:04.149Z,99667.47
2022-08-24T22:05:48.472Z,99638.31
2022-08-24T22:08:32.636Z,99665.63
2022-08-24T22:11:21.006Z,99675.13
2022-08-24T22:14:05.618Z,99682.91
2022-08-24T22:16:50.013Z,99656.84
2022-08-24T22:19:34.116Z,99658.66
2022-08-24T22:22:18.180Z,99687.09
2022-08-24T22:25:02.476Z,99655.88
2022-08-24T22:27:49.891Z,99703.69
2022-08-24T22:30:35.049Z,99676.78
2022-08-24T22:33:19.610Z,99678.28
2022-08-24T22:36:04.153Z,99713.03
2022-08-24T22:38:48.412Z,99643.94
2022-08-24T22:41:32.805Z,99680.00
2022-08-24T22:44:21.617Z,99690.34
2022-08-24T22:47:13.227Z,99666.53
2022-08-24T22:49:59.220Z,99697.94
2022-08-24T22:52:43.271Z,99628.19
2022-08-24T22:55:27.575Z,99662.44
2022-08-24T22:58:11.620Z,99667.47
2022-08-24T23:00:57.368Z,99696.38
2022-08-24T23:03:41.584Z,99664.25
2022-08-24T23:06:30.501Z,99689.88
2022-08-24T23:09:14.829Z,99692.56
2022-08-24T23:11:58.959Z,99696.78
2022-08-24T23:14:43.643Z,99678.44
2022-08-24T23:17:29.152Z,99650.28
2022-08-24T23:20:12.613Z,99660.75
2022-08-24T23:22:56.934Z,99685.09
2022-08-24T23:25:40.983Z,99684.97
2022-08-24T23:28:25.091Z,99650.91
2022-08-24T23:31:11.552Z,99661.44
2022-08-24T23:33:57.489Z,99645.41
2022-08-24T23:36:42.601Z,99633.19
2022-08-24T23:39:26.837Z,99665.28
2022-08-24T23:42:11.631Z,99663.69
2022-08-24T23:44:55.809Z,99586.28
2022-08-24T23:47:42.152Z,99657.47
2022-08-24T23:50:27.871Z,99626.16
2022-08-24T23:53:12.038Z,99614.84
2022-08-24T23:55:56.284Z,99613.31
2022-08-24T23:58:41.020Z,99626.97
